sensor_id;sensor_type;location;lat;lon;timestamp;pressure;altitude;pressure_sealevel;temperature;humidity
9764;BME280;4921;43.214;27.936;2023-04-12T00:00:15;99556.84;;;12.33;100.00
9764;BME280;4921;43.214;27.936;2023-04-12T00:02:42;99558.50;;;12.34;100.00
9764;BME280;4921;43.214;27.936;2023-04-12T00:05:10;99557.63;;;12.25;100.00
9764;BME280;4921;43.214;27.936;2023-04-12T00:07:40;99558.81;;;12.31;100.00
9764;BME280;4921;43.214;27.936;2023-04-12T00:10:11;99558.06;;;12.12;100.00
9764;BME280;4921;43.214;27.936;2023-04-12T00:12:38;99558.44;;;12.17;100.00
9764;BME280;4921;43.214;27.936;2023-04-12T00:15:07;99548.59;;;12.27;100.00
9764;BME280;4921;43.214;27.936;2023-04-12T00:17:34;99551.22;;;12.27;100.00
9764;BME280;4921;43.214;27.936;2023-04-12T00:20:01;99550.38;;;12.27;100.00
9764;BME280;4921;43.214;27.936;2023-04-12T00:22:30;99553.06;;;12.35;100.00
9764;BME280;4921;43.214;27.936;2023-04-12T00:24:59;99554.22;;;12.33;100.00
9764;BME280;4921;43.214;27.936;2023-04-12T00:27:25;99545.94;;;12.27;100.00
9764;BME280;4921;43.214;27.936;2023-04-12T00:29:52;99549.19;;;12.13;100.00
9764;BME280;4921;43.214;27.936;2023-04-12T00:32:19;99550.63;;;12.08;100.00
9764;BME280;4921;43.214;27.936;2023-04-12T00:34:46;99551.84;;;12.13;100.00
9764;BME280;4921;43.214;27.936;2023-04-12T00:37:13;99550.72;;;12.24;100.00
9764;BME280;4921;43.214;27.936;2023-04-12T00:39:40;99555.53;;;12.29;100.00
9764;BME280;4921;43.214;27.936;2023-04-12T00:42:09;99558.94;;;12.21;100.00
9764;BME280;4921;43.214;27.936;2023-04-12T00:44:36;99557.63;;;12.25;100.00
9764;BME280;4921;43.214;27.936;2023-04-12T00:47:03;99555.66;;;12.27;100.00
9764;BME280;4921;43.214;27.936;2023-04-12T00:49:32;99563.25;;;12.22;100.00
9764;BME280;4921;43.214;27.936;2023-04-12T00:52:00;99558.94;;;12.21;100.00
9764;BME280;4921;43.214;27.936;2023-04-12T00:54:29;99557.31;;;12.20;100.00
9764;BME280;4921;43.214;27.936;2023-04-12T00:56:57;99555.34;;;12.22;100.00
9764;BME280;4921;43.214;27.936;2023-04-12T00:59:25;99556.97;;;12.23;100.00
9764;BME280;4921;43.214;27.936;2023-04-12T01:01:53;99554.03;;;12.26;100.00
9764;BME280;4921;43.214;27.936;2023-04-12T01:04:20;99546.59;;;12.21;100.00
9764;BME280;4921;43.214;27.936;2023-04-12T01:07:01;99551.38;;;12.26;100.00
9764;BME280;4921;43.214;27.936;2023-04-12T01:09:37;99554.53;;;12.30;100.00
9764;BME280;4921;43.214;27.936;2023-04-12T01:12:13;99553.03;;;12.27;100.00
9764;BME280;4921;43.214;27.936;2023-04-12T01:14:48;99552.69;;;12.22;100.00
9764;BME280;4921;43.214;27.936;2023-04-12T01:17:21;99551.03;;;12.21;100.00
9764;BME280;4921;43.214;27.936;2023-04-12T01:19:55;99553.72;;;12.29;100.00
9764;BME280;4921;43.214;27.936;2023-04-12T01:22:49;99551.56;;;12.24;100.00
9764;BME280;4921;43.214;27.936;2023-04-12T01:25:29;99547.88;;;12.09;100.00
9764;BME280;4921;43.214;27.936;2023-04-12T01:28:06;99552.03;;;12.20;100.00
9764;BME280;4921;43.214;27.936;2023-04-12T01:30:35;99549.91;;;12.23;100.00
9764;BME280;4921;43.214;27.936;2023-04-12T01:33:04;99551.38;;;12.18;100.00
9764;BME280;4921;43.214;27.936;2023-04-12T01:35:32;99542.63;;;12.17;100.00
9764;BME280;4921;43.214;27.936;2023-04-12T01:37:59;99546.09;;;12.18;100.00
9764;BME280;4921;43.214;27.936;2023-04-12T01:40:28;99538.78;;;12.12;100.00
9764;BME280;4921;43.214;27.936;2023-04-12T01:43:07;99537.81;;;12.13;100.00
9764;BME280;4921;43.214;27.936;2023-04-12T01:45:34;99536.13;;;12.04;100.00
9764;BME280;4921;43.214;27.936;2023-04-12T01:48:03;99543.00;;;11.97;100.00
9764;BME280;4921;43.214;27.936;2023-04-12T01:50:37;99542.34;;;11.95;100.00
9764;BME280;4921;43.214;27.936;2023-04-12T01:53:10;99540.25;;;12.06;100.00
9764;BME280;4921;43.214;27.936;2023-04-12T01:55:40;99542.59;;;12.09;100.00
9764;BME280;4921;43.214;27.936;2023-04-12T01:58:11;99540.28;;;12.14;100.00
9764;BME280;4921;43.214;27.936;2023-04-12T02:00:41;99537.66;;;12.14;100.00
9764;BME280;4921;43.214;27.936;2023-04-12T02:03:09;99539.63;;;12.12;100.00
9764;BME280;4921;43.214;27.936;2023-04-12T02:05:38;99530.41;;;12.08;100.00
9764;BME280;4921;43.214;27.936;2023-04-12T02:08:05;99541.75;;;12.01;100.00
9764;BME280;4921;43.214;27.936;2023-04-12T02:10:33;99542.84;;;11.90;100.00
9764;BME280;4921;43.214;27.936;2023-04-12T02:13:01;99534.22;;;11.88;100.00
9764;BME280;4921;43.214;27.936;2023-04-12T02:15:30;99549.16;;;11.80;100.00
9764;BME280;4921;43.214;27.936;2023-04-12T02:17:57;99549.25;;;11.88;100.00
9764;BME280;4921;43.214;27.936;2023-04-12T02:20:26;99558.78;;;11.89;100.00
9764;BME280;4921;43.214;27.936;2023-04-12T02:22:53;99551.53;;;11.91;100.00
9764;BME280;4921;43.214;27.936;2023-04-12T02:25:20;99551.41;;;11.92;100.00
9764;BME280;4921;43.214;27.936;2023-04-12T02:27:47;99544.97;;;11.95;100.00
9764;BME280;4921;43.214;27.936;2023-04-12T02:30:14;99546.47;;;11.97;100.00
9764;BME280;4921;43.214;27.936;2023-04-12T02:32:43;99544.84;;;11.96;100.00
9764;BME280;4921;43.214;27.936;2023-04-12T02:35:10;99544.97;;;11.95;100.00
9764;BME280;4921;43.214;27.936;2023-04-12T02:37:38;99543.78;;;11.81;100.00
9764;BME280;4921;43.214;27.936;2023-04-12T02:40:06;99545.94;;;11.86;100.00
9764;BME280;4921;43.214;27.936;2023-04-12T02:42:35;99552.13;;;11.77;100.00
9764;BME280;4921;43.214;27.936;2023-04-12T02:45:02;99545.06;;;11.77;100.00
9764;BME280;4921;43.214;27.936;2023-04-12T02:47:29;99541.94;;;11.82;100.00
9764;BME280;4921;43.214;27.936;2023-04-12T02:49:57;99540.47;;;11.79;100.00
9764;BME280;4921;43.214;27.936;2023-04-12T02:52:25;99540.09;;;11.74;100.00
9764;BME280;4921;43.214;27.936;2023-04-12T02:54:54;99541.47;;;11.86;100.00
9764;BME280;4921;43.214;27.936;2023-04-12T02:57:22;99539.88;;;11.93;100.00
9764;BME280;4921;43.214;27.936;2023-04-12T02:59:49;99533.97;;;11.99;100.00
9764;BME280;4921;43.214;27.936;2023-04-12T03:02:17;99528.03;;;11.97;100.00
9764;BME280;4921;43.214;27.936;2023-04-12T03:04:44;99536.19;;;11.86;100.00
9764;BME280;4921;43.214;27.936;2023-04-12T03:07:18;99547.19;;;11.82;100.00
9764;BME280;4921;43.214;27.936;2023-04-12T03:09:45;99539.50;;;11.88;100.00
9764;BME280;4921;43.214;27.936;2023-04-12T03:12:13;99539.03;;;11.93;100.00
9764;BME280;4921;43.214;27.936;2023-04-12T03:14:41;99537.41;;;11.92;100.00
9764;BME280;4921;43.214;27.936;2023-04-12T03:17:08;99547.91;;;11.84;100.00
9764;BME280;4921;43.214;27.936;2023-04-12T03:19:36;99544.78;;;11.88;100.00
9764;BME280;4921;43.214;27.936;2023-04-12T03:22:03;99536.19;;;11.86;100.00
9764;BME280;4921;43.214;27.936;2023-04-12T03:24:32;99549.47;;;12.02;100.00
9764;BME280;4921;43.214;27.936;2023-04-12T03:27:00;99550.97;;;12.05;100.00
9764;BME280;4921;43.214;27.936;2023-04-12T03:29:30;99552.97;;;12.11;100.00
9764;BME280;4921;43.214;27.936;2023-04-12T03:31:57;99546.16;;;12.00;100.00
9764;BME280;4921;43.214;27.936;2023-04-12T03:34:24;99549.19;;;12.13;100.00
9764;BME280;4921;43.214;27.936;2023-04-12T03:36:53;99547.69;;;12.11;100.00
9764;BME280;4921;43.214;27.936;2023-04-12T03:39:20;99555.31;;;12.14;100.00
9764;BME280;4921;43.214;27.936;2023-04-12T03:41:49;99546.56;;;12.13;100.00
9764;BME280;4921;43.214;27.936;2023-04-12T03:44:17;99552.97;;;12.11;100.00
9764;BME280;4921;43.214;27.936;2023-04-12T03:46:45;99551.97;;;12.12;100.00
9764;BME280;4921;43.214;27.936;2023-04-12T03:49:13;99553.28;;;12.08;100.00
9764;BME280;4921;43.214;27.936;2023-04-12T03:51:41;99555.22;;;11.98;100.00
9764;BME280;4921;43.214;27.936;2023-04-12T03:54:08;99554.56;;;12.04;100.00
9764;BME280;4921;43.214;27.936;2023-04-12T03:56:35;99550.63;;;12.08;100.00
9764;BME280;4921;43.214;27.936;2023-04-12T03:59:04;99554.94;;;12.09;100.00
9764;BME280;4921;43.214;27.936;2023-04-12T04:01:32;99556.75;;;12.08;100.00
9764;BME280;4921;43.214;27.936;2023-04-12T04:03:59;99555.91;;;12.08;100.00
9764;BME280;4921;43.214;27.936;2023-04-12T04:06:26;99562.91;;;11.91;100.00
9764;BME280;4921;43.214;27.936;2023-04-12T04:08:54;99557.84;;;11.98;100.00
9764;BME280;4921;43.214;27.936;2023-04-12T04:11:21;99557.84;;;11.98;100.00
9764;BME280;4921;43.214;27.936;2023-04-12T04:13:49;99556.06;;;12.06;100.00
9764;BME280;4921;43.214;27.936;2023-04-12T04:16:17;99556.53;;;12.02;100.00
9764;BME280;4921;43.214;27.936;2023-04-12T04:18:44;99553.75;;;12.03;100.00
9764;BME280;4921;43.214;27.936;2023-04-12T04:21:11;99553.75;;;12.03;100.00
9764;BME280;4921;43.214;27.936;2023-04-12T04:23:40;99560.66;;;11.96;100.00
9764;BME280;4921;43.214;27.936;2023-04-12T04:26:09;99562.81;;;12.01;100.00
9764;BME280;4921;43.214;27.936;2023-04-12T04:28:37;99560.00;;;12.02;100.00
9764;BME280;4921;43.214;27.936;2023-04-12T04:31:07;99562.47;;;12.04;100.00
9764;BME280;4921;43.214;27.936;2023-04-12T04:33:37;99564.78;;;11.99;100.00
9764;BME280;4921;43.214;27.936;2023-04-12T04:36:05;99562.34;;;12.05;100.00
9764;BME280;4921;43.214;27.936;2023-04-12T04:38:33;99556.75;;;12.08;100.00
9764;BME280;4921;43.214;27.936;2023-04-12T04:41:01;99568.41;;;12.06;100.00
9764;BME280;4921;43.214;27.936;2023-04-12T04:43:29;99570.06;;;11.99;100.00
9764;BME280;4921;43.214;27.936;2023-04-12T04:45:56;99572.06;;;12.05;100.00
9764;BME280;4921;43.214;27.936;2023-04-12T04:48:23;99570.91;;;12.07;100.00
9764;BME280;4921;43.214;27.936;2023-04-12T04:50:52;99574.81;;;12.03;100.00
9764;BME280;4921;43.214;27.936;2023-04-12T04:53:20;99576.53;;;12.12;100.00
9764;BME280;4921;43.214;27.936;2023-04-12T04:55:48;99572.25;;;12.11;100.00
9764;BME280;4921;43.214;27.936;2023-04-12T04:58:14;99564.81;;;12.07;100.00
9764;BME280;4921;43.214;27.936;2023-04-12T05:00:42;99577.66;;;12.10;100.00
9764;BME280;4921;43.214;27.936;2023-04-12T05:03:10;99581.78;;;12.12;100.00
9764;BME280;4921;43.214;27.936;2023-04-12T05:05:37;99578.31;;;12.12;100.00
9764;BME280;4921;43.214;27.936;2023-04-12T05:08:05;99574.22;;;12.09;100.00
9764;BME280;4921;43.214;27.936;2023-04-12T05:10:33;99578.84;;;12.15;100.00
9764;BME280;4921;43.214;27.936;2023-04-12T05:13:00;99573.44;;;12.25;100.00
9764;BME280;4921;43.214;27.936;2023-04-12T05:15:28;99576.63;;;12.29;100.00
9764;BME280;4921;43.214;27.936;2023-04-12T05:17:55;99571.34;;;12.29;100.00
9764;BME280;4921;43.214;27.936;2023-04-12T05:20:22;99572.66;;;12.33;100.00
9764;BME280;4921;43.214;27.936;2023-04-12T05:22:49;99582.53;;;12.31;100.00
9764;BME280;4921;43.214;27.936;2023-04-12T05:25:18;99581.53;;;12.32;100.00
9764;BME280;4921;43.214;27.936;2023-04-12T05:27:46;99548.44;;;12.29;100.00
9764;BME280;4921;43.214;27.936;2023-04-12T05:30:13;99577.47;;;12.37;100.00
9764;BME280;4921;43.214;27.936;2023-04-12T05:32:40;99581.03;;;12.28;100.00
9764;BME280;4921;43.214;27.936;2023-04-12T05:35:09;99571.16;;;12.30;100.00
9764;BME280;4921;43.214;27.936;2023-04-12T05:37:36;99577.00;;;12.42;100.00
9764;BME280;4921;43.214;27.936;2023-04-12T05:40:04;99575.84;;;12.44;100.00
9764;BME280;4921;43.214;27.936;2023-04-12T05:42:35;99569.28;;;12.48;100.00
9764;BME280;4921;43.214;27.936;2023-04-12T05:45:02;99576.84;;;12.51;100.00
9764;BME280;4921;43.214;27.936;2023-04-12T05:47:30;99577.84;;;12.50;100.00
9764;BME280;4921;43.214;27.936;2023-04-12T05:49:57;99583.97;;;12.51;100.00
9764;BME280;4921;43.214;27.936;2023-04-12T05:52:24;99582.78;;;12.53;100.00
9764;BME280;4921;43.214;27.936;2023-04-12T05:54:51;99570.78;;;12.59;100.00
9764;BME280;4921;43.214;27.936;2023-04-12T05:57:18;99578.53;;;12.60;100.00
9764;BME280;4921;43.214;27.936;2023-04-12T05:59:46;99578.72;;;12.67;100.00
9764;BME280;4921;43.214;27.936;2023-04-12T06:02:13;99561.75;;;12.69;100.00
9764;BME280;4921;43.214;27.936;2023-04-12T06:04:41;99560.44;;;12.73;100.00
9764;BME280;4921;43.214;27.936;2023-04-12T06:07:08;99569.66;;;12.69;100.00
9764;BME280;4921;43.214;27.936;2023-04-12T06:09:35;99556.00;;;12.74;100.00
9764;BME280;4921;43.214;27.936;2023-04-12T06:12:02;99555.81;;;12.75;100.00
9764;BME280;4921;43.214;27.936;2023-04-12T06:14:29;99557.31;;;12.70;100.00
9764;BME280;4921;43.214;27.936;2023-04-12T06:16:58;99564.22;;;12.71;100.00
9764;BME280;4921;43.214;27.936;2023-04-12T06:19:25;99573.97;;;12.78;100.00
9764;BME280;4921;43.214;27.936;2023-04-12T06:21:52;99568.34;;;12.81;100.00
9764;BME280;4921;43.214;27.936;2023-04-12T06:24:19;99570.19;;;12.81;100.00
9764;BME280;4921;43.214;27.936;2023-04-12T06:26:46;99582.25;;;12.91;100.00
9764;BME280;4921;43.214;27.936;2023-04-12T06:29:13;99578.13;;;12.97;100.00
9764;BME280;4921;43.214;27.936;2023-04-12T06:31:40;99577.63;;;13.01;100.00
9764;BME280;4921;43.214;27.936;2023-04-12T06:34:08;99568.44;;;13.06;100.00
9764;BME280;4921;43.214;27.936;2023-04-12T06:36:35;99574.22;;;13.17;100.00
9764;BME280;4921;43.214;27.936;2023-04-12T06:39:04;99567.13;;;13.26;100.00
9764;BME280;4921;43.214;27.936;2023-04-12T06:41:32;99576.03;;;13.33;100.00
9764;BME280;4921;43.214;27.936;2023-04-12T06:43:59;99576.38;;;13.30;100.00
9764;BME280;4921;43.214;27.936;2023-04-12T06:46:26;99575.53;;;13.37;100.00
9764;BME280;4921;43.214;27.936;2023-04-12T06:48:53;99579.66;;;13.40;100.00
9764;BME280;4921;43.214;27.936;2023-04-12T06:51:21;99587.75;;;13.46;100.00
9764;BME280;4921;43.214;27.936;2023-04-12T06:53:48;99592.72;;;13.49;100.00
9764;BME280;4921;43.214;27.936;2023-04-12T06:56:15;99592.53;;;13.59;100.00
9764;BME280;4921;43.214;27.936;2023-04-12T06:58:42;99595.34;;;13.65;100.00
9764;BME280;4921;43.214;27.936;2023-04-12T07:01:10;99598.66;;;13.59;100.00
9764;BME280;4921;43.214;27.936;2023-04-12T07:03:37;99588.25;;;13.58;100.00
9764;BME280;4921;43.214;27.936;2023-04-12T07:06:05;99590.91;;;13.58;100.00
9764;BME280;4921;43.214;27.936;2023-04-12T07:08:33;99601.97;;;13.45;100.00
9764;BME280;4921;43.214;27.936;2023-04-12T07:11:01;99604.91;;;13.50;100.00
9764;BME280;4921;43.214;27.936;2023-04-12T07:13:28;99595.03;;;13.60;100.00
9764;BME280;4921;43.214;27.936;2023-04-12T07:15:56;99605.44;;;13.54;100.00
9764;BME280;4921;43.214;27.936;2023-04-12T07:18:25;99602.47;;;13.65;100.00
9764;BME280;4921;43.214;27.936;2023-04-12T07:20:54;99611.84;;;13.75;100.00
9764;BME280;4921;43.214;27.936;2023-04-12T07:23:21;99604.44;;;13.71;100.00
9764;BME280;4921;43.214;27.936;2023-04-12T07:25:49;99615.63;;;13.89;100.00
9764;BME280;4921;43.214;27.936;2023-04-12T07:28:17;99601.88;;;14.02;100.00
9764;BME280;4921;43.214;27.936;2023-04-12T07:30:44;99596.41;;;14.11;100.00
9764;BME280;4921;43.214;27.936;2023-04-12T07:33:11;99596.56;;;14.18;100.00
9764;BME280;4921;43.214;27.936;2023-04-12T07:35:38;99591.91;;;14.28;100.00
9764;BME280;4921;43.214;27.936;2023-04-12T07:38:05;99599.34;;;14.40;100.00
9764;BME280;4921;43.214;27.936;2023-04-12T07:40:32;99606.78;;;14.37;100.00
9764;BME280;4921;43.214;27.936;2023-04-12T07:43:00;99608.72;;;14.43;100.00
9764;BME280;4921;43.214;27.936;2023-04-12T07:45:27;99601.44;;;14.53;100.00
9764;BME280;4921;43.214;27.936;2023-04-12T07:47:54;99609.13;;;14.71;100.00
9764;BME280;4921;43.214;27.936;2023-04-12T07:50:21;99603.00;;;14.70;100.00
9764;BME280;4921;43.214;27.936;2023-04-12T07:52:48;99610.56;;;14.73;100.00
9764;BME280;4921;43.214;27.936;2023-04-12T07:55:15;99607.34;;;14.63;100.00
9764;BME280;4921;43.214;27.936;2023-04-12T07:57:42;99609.78;;;14.65;100.00
9764;BME280;4921;43.214;27.936;2023-04-12T08:00:11;99605.47;;;14.72;100.00
9764;BME280;4921;43.214;27.936;2023-04-12T08:02:38;99614.06;;;14.74;100.00
9764;BME280;4921;43.214;27.936;2023-04-12T08:05:06;99602.31;;;14.76;100.00
9764;BME280;4921;43.214;27.936;2023-04-12T08:07:33;99603.72;;;14.87;100.00
9764;BME280;4921;43.214;27.936;2023-04-12T08:10:00;99598.63;;;14.85;100.00
9764;BME280;4921;43.214;27.936;2023-04-12T08:12:27;99591.34;;;14.87;100.00
9764;BME280;4921;43.214;27.936;2023-04-12T08:14:54;99594.28;;;15.15;100.00
9764;BME280;4921;43.214;27.936;2023-04-12T08:17:23;99599.28;;;15.10;100.00
9764;BME280;4921;43.214;27.936;2023-04-12T08:19:53;99593.94;;;15.18;100.00
9764;BME280;4921;43.214;27.936;2023-04-12T08:22:23;99604.41;;;15.34;100.00
9764;BME280;4921;43.214;27.936;2023-04-12T08:24:50;99599.84;;;15.51;100.00
9764;BME280;4921;43.214;27.936;2023-04-12T08:27:17;99597.06;;;15.67;94.57
9764;BME280;4921;43.214;27.936;2023-04-12T08:29:44;99595.13;;;15.61;94.06
9764;BME280;4921;43.214;27.936;2023-04-12T08:32:11;99602.44;;;15.59;96.46
9764;BME280;4921;43.214;27.936;2023-04-12T08:34:39;99595.84;;;15.55;97.94
9764;BME280;4921;43.214;27.936;2023-04-12T08:37:06;99591.53;;;15.54;96.73
9764;BME280;4921;43.214;27.936;2023-04-12T08:39:33;99603.63;;;15.56;95.20
9764;BME280;4921;43.214;27.936;2023-04-12T08:42:03;99602.53;;;15.43;95.92
9764;BME280;4921;43.214;27.936;2023-04-12T08:44:34;99590.06;;;15.28;98.81
9764;BME280;4921;43.214;27.936;2023-04-12T08:47:02;99610.09;;;15.31;100.00
9764;BME280;4921;43.214;27.936;2023-04-12T08:49:30;99613.06;;;15.28;100.00
9764;BME280;4921;43.214;27.936;2023-04-12T08:52:01;99610.00;;;15.16;100.00
9764;BME280;4921;43.214;27.936;2023-04-12T08:54:30;99617.28;;;15.14;100.00
9764;BME280;4921;43.214;27.936;2023-04-12T08:56:59;99613.53;;;15.09;100.00
9764;BME280;4921;43.214;27.936;2023-04-12T08:59:27;99602.44;;;15.05;100.00
9764;BME280;4921;43.214;27.936;2023-04-12T09:01:55;99599.88;;;14.97;100.00
9764;BME280;4921;43.214;27.936;2023-04-12T09:04:22;99599.66;;;15.07;100.00
9764;BME280;4921;43.214;27.936;2023-04-12T09:06:51;99605.28;;;15.04;100.00
9764;BME280;4921;43.214;27.936;2023-04-12T09:09:32;99607.41;;;15.08;100.00
9764;BME280;4921;43.214;27.936;2023-04-12T09:12:06;99607.47;;;15.00;100.00
9764;BME280;4921;43.214;27.936;2023-04-12T09:14:33;99607.47;;;15.00;100.00
9764;BME280;4921;43.214;27.936;2023-04-12T09:17:00;99612.63;;;14.94;100.00
9764;BME280;4921;43.214;27.936;2023-04-12T09:19:30;99610.97;;;14.93;100.00
9764;BME280;4921;43.214;27.936;2023-04-12T09:21:58;99610.16;;;14.92;100.00
9764;BME280;4921;43.214;27.936;2023-04-12T09:24:26;99624.00;;;15.02;100.00
9764;BME280;4921;43.214;27.936;2023-04-12T09:27:00;99618.06;;;15.00;100.00
9764;BME280;4921;43.214;27.936;2023-04-12T09:29:28;99619.34;;;15.04;100.00
9764;BME280;4921;43.214;27.936;2023-04-12T09:31:58;99620.06;;;14.98;100.00
9764;BME280;4921;43.214;27.936;2023-04-12T09:34:25;99621.28;;;14.88;100.00
9764;BME280;4921;43.214;27.936;2023-04-12T09:36:52;99625.75;;;14.87;100.00
9764;BME280;4921;43.214;27.936;2023-04-12T09:39:21;99627.94;;;14.76;100.00
9764;BME280;4921;43.214;27.936;2023-04-12T09:42:04;99631.09;;;14.71;100.00
9764;BME280;4921;43.214;27.936;2023-04-12T09:44:32;99628.31;;;14.65;100.00
9764;BME280;4921;43.214;27.936;2023-04-12T09:47:00;99624.03;;;14.64;100.00
9764;BME280;4921;43.214;27.936;2023-04-12T09:49:38;99628.53;;;14.55;100.00
9764;BME280;4921;43.214;27.936;2023-04-12T09:52:07;99616.19;;;14.39;100.00
9764;BME280;4921;43.214;27.936;2023-04-12T09:54:36;99623.25;;;14.47;100.00
9764;BME280;4921;43.214;27.936;2023-04-12T09:57:07;99624.09;;;14.47;100.00
9764;BME280;4921;43.214;27.936;2023-04-12T09:59:36;99622.78;;;14.43;100.00
9764;BME280;4921;43.214;27.936;2023-04-12T10:02:06;99624.13;;;14.39;100.00
9764;BME280;4921;43.214;27.936;2023-04-12T10:04:36;99623.94;;;14.41;100.00
9764;BME280;4921;43.214;27.936;2023-04-12T10:07:05;99620.97;;;14.44;100.00
9764;BME280;4921;43.214;27.936;2023-04-12T10:09:32;99629.22;;;14.49;100.00
9764;BME280;4921;43.214;27.936;2023-04-12T10:12:01;99627.84;;;14.61;100.00
9764;BME280;4921;43.214;27.936;2023-04-12T10:14:30;99629.81;;;14.67;100.00
9764;BME280;4921;43.214;27.936;2023-04-12T10:16:58;99641.72;;;14.63;100.00
9764;BME280;4921;43.214;27.936;2023-04-12T10:19:27;99644.22;;;14.57;100.00
9764;BME280;4921;43.214;27.936;2023-04-12T10:21:55;99641.81;;;14.39;100.00
9764;BME280;4921;43.214;27.936;2023-04-12T10:24:22;99644.84;;;14.12;100.00
9764;BME280;4921;43.214;27.936;2023-04-12T10:26:49;99640.03;;;14.15;100.00
9764;BME280;4921;43.214;27.936;2023-04-12T10:29:25;99642.66;;;14.15;100.00
9764;BME280;4921;43.214;27.936;2023-04-12T10:31:54;99640.19;;;14.14;100.00
9764;BME280;4921;43.214;27.936;2023-04-12T10:34:28;99656.91;;;14.14;100.00
9764;BME280;4921;43.214;27.936;2023-04-12T10:36:56;99646.00;;;14.01;100.00
9764;BME280;4921;43.214;27.936;2023-04-12T10:39:38;99639.59;;;13.80;100.00
9764;BME280;4921;43.214;27.936;2023-04-12T10:42:23;99635.63;;;13.75;100.00
9764;BME280;4921;43.214;27.936;2023-04-12T10:44:52;99633.78;;;13.76;100.00
9764;BME280;4921;43.214;27.936;2023-04-12T10:47:58;99640.56;;;13.87;100.00
9764;BME280;4921;43.214;27.936;2023-04-12T10:50:27;99629.84;;;13.88;100.00
9764;BME280;4921;43.214;27.936;2023-04-12T10:53:20;99636.59;;;13.99;100.00
9764;BME280;4921;43.214;27.936;2023-04-12T10:55:49;99648.16;;;14.06;100.00
9764;BME280;4921;43.214;27.936;2023-04-12T10:58:54;99637.44;;;13.99;100.00
9764;BME280;4921;43.214;27.936;2023-04-12T11:01:21;99649.34;;;13.95;100.00
9764;BME280;4921;43.214;27.936;2023-04-12T11:04:15;99638.06;;;13.93;100.00
9764;BME280;4921;43.214;27.936;2023-04-12T11:06:46;99639.41;;;13.89;100.00
9764;BME280;4921;43.214;27.936;2023-04-12T11:09:18;99639.91;;;14.01;100.00
9764;BME280;4921;43.214;27.936;2023-04-12T11:11:46;99638.22;;;14.00;100.00
9764;BME280;4921;43.214;27.936;2023-04-12T11:14:14;99636.56;;;14.07;100.00
9764;BME280;4921;43.214;27.936;2023-04-12T11:17:19;99645.84;;;13.95;100.00
9764;BME280;4921;43.214;27.936;2023-04-12T11:19:50;99645.53;;;13.90;100.00
9764;BME280;4921;43.214;27.936;2023-04-12T11:22:19;99648.16;;;13.90;100.00
9764;BME280;4921;43.214;27.936;2023-04-12T11:24:48;99648.47;;;14.03;100.00
9764;BME280;4921;43.214;27.936;2023-04-12T11:27:15;99631.47;;;14.05;100.00
9764;BME280;4921;43.214;27.936;2023-04-12T11:29:42;99638.69;;;14.19;100.00
9764;BME280;4921;43.214;27.936;2023-04-12T11:32:12;99630.09;;;14.25;100.00
9764;BME280;4921;43.214;27.936;2023-04-12T11:34:40;99639.66;;;14.26;100.00
9764;BME280;4921;43.214;27.936;2023-04-12T11:37:09;99643.84;;;14.21;100.00
9764;BME280;4921;43.214;27.936;2023-04-12T11:39:38;99651.44;;;14.16;100.00
9764;BME280;4921;43.214;27.936;2023-04-12T11:42:06;99644.81;;;14.20;100.00
9764;BME280;4921;43.214;27.936;2023-04-12T11:44:39;99651.97;;;14.03;100.00
9764;BME280;4921;43.214;27.936;2023-04-12T11:47:12;99642.63;;;14.23;100.00
9764;BME280;4921;43.214;27.936;2023-04-12T11:49:42;99634.88;;;14.22;100.00
9764;BME280;4921;43.214;27.936;2023-04-12T11:52:11;99645.47;;;14.22;100.00
9764;BME280;4921;43.214;27.936;2023-04-12T11:54:41;99633.22;;;14.37;100.00
9764;BME280;4921;43.214;27.936;2023-04-12T11:57:11;99633.88;;;14.39;100.00
9764;BME280;4921;43.214;27.936;2023-04-12T11:59:38;99638.09;;;14.56;100.00
9764;BME280;4921;43.214;27.936;2023-04-12T12:02:07;99636.25;;;14.65;100.00
9764;BME280;4921;43.214;27.936;2023-04-12T12:04:34;99648.31;;;14.67;100.00
9764;BME280;4921;43.214;27.936;2023-04-12T12:07:02;99640.84;;;14.79;100.00
9764;BME280;4921;43.214;27.936;2023-04-12T12:09:32;99652.69;;;14.91;100.00
9764;BME280;4921;43.214;27.936;2023-04-12T12:12:00;99651.13;;;15.04;100.00
9764;BME280;4921;43.214;27.936;2023-04-12T12:14:27;99650.56;;;15.17;100.00
9764;BME280;4921;43.214;27.936;2023-04-12T12:16:55;99653.56;;;15.37;100.00
9764;BME280;4921;43.214;27.936;2023-04-12T12:19:27;99651.44;;;15.63;100.00
9764;BME280;4921;43.214;27.936;2023-04-12T12:22:09;99657.00;;;15.68;100.00
9764;BME280;4921;43.214;27.936;2023-04-12T12:24:38;99656.47;;;15.72;100.00
9764;BME280;4921;43.214;27.936;2023-04-12T12:27:05;99658.31;;;15.72;100.00
9764;BME280;4921;43.214;27.936;2023-04-12T12:29:35;99663.50;;;15.65;100.00
9764;BME280;4921;43.214;27.936;2023-04-12T12:32:08;99659.84;;;15.66;100.00
9764;BME280;4921;43.214;27.936;2023-04-12T12:34:35;99663.13;;;15.68;100.00
9764;BME280;4921;43.214;27.936;2023-04-12T12:37:06;99677.44;;;15.59;100.00
9764;BME280;4921;43.214;27.936;2023-04-12T12:39:33;99679.41;;;15.35;100.00
9764;BME280;4921;43.214;27.936;2023-04-12T12:42:02;99680.81;;;15.22;100.00
9764;BME280;4921;43.214;27.936;2023-04-12T12:44:30;99684.94;;;15.25;100.00
9764;BME280;4921;43.214;27.936;2023-04-12T12:46:58;99680.59;;;15.32;100.00
9764;BME280;4921;43.214;27.936;2023-04-12T12:49:26;99688.88;;;15.29;100.00
9764;BME280;4921;43.214;27.936;2023-04-12T12:51:53;99676.06;;;15.18;100.00
9764;BME280;4921;43.214;27.936;2023-04-12T12:54:20;99685.47;;;14.82;100.00
9764;BME280;4921;43.214;27.936;2023-04-12T12:56:47;99687.59;;;14.86;100.00
9764;BME280;4921;43.214;27.936;2023-04-12T12:59:15;99683.66;;;14.82;100.00
9764;BME280;4921;43.214;27.936;2023-04-12T13:01:42;99677.06;;;14.78;100.00
9764;BME280;4921;43.214;27.936;2023-04-12T13:04:09;99678.72;;;14.71;100.00
9764;BME280;4921;43.214;27.936;2023-04-12T13:06:36;99682.25;;;14.64;100.00
9764;BME280;4921;43.214;27.936;2023-04-12T13:09:03;99681.59;;;14.62;100.00